createdAt,value
2018-09-18T00:00:11.128Z,8.43
2018-09-18T00:02:38.944Z,8.23
2018-09-18T00:05:07.108Z,10.60
2018-09-18T00:07:35.061Z,10.32
2018-09-18T00:10:02.962Z,11.12
2018-09-18T00:12:32.054Z,8.43
2018-09-18T00:14:59.993Z,9.05
2018-09-18T00:17:28.660Z,9.48
2018-09-18T00:19:57.335Z,9.35
2018-09-18T00:22:25.717Z,9.35
2018-09-18T00:24:55.128Z,8.38
2018-09-18T00:27:22.913Z,10.28
2018-09-18T00:29:51.474Z,8.30
2018-09-18T00:32:20.056Z,12.33
2018-09-18T00:34:48.949Z,7.75
2018-09-18T00:37:16.789Z,8.70
2018-09-18T00:39:44.916Z,4.62
2018-09-18T00:42:13.498Z,6.28
2018-09-18T00:44:42.079Z,4.55
2018-09-18T00:47:10.218Z,4.58
2018-09-18T00:49:38.112Z,3.02
2018-09-18T00:52:08.121Z,4.50
2018-09-18T00:54:35.888Z,2.67
2018-09-18T00:57:04.208Z,5.87
2018-09-18T00:59:32.037Z,3.70
2018-09-18T01:01:59.857Z,3.80
2018-09-18T01:04:28.195Z,4.15
2018-09-18T01:06:56.112Z,3.25
2018-09-18T01:09:24.266Z,4.20
2018-09-18T01:11:53.039Z,5.70
2018-09-18T01:14:22.509Z,6.60
2018-09-18T01:16:50.456Z,7.80
2018-09-18T01:19:18.268Z,5.58
2018-09-18T01:21:46.401Z,6.67
2018-09-18T01:24:14.276Z,6.45
2018-09-18T01:26:45.858Z,7.53
2018-09-18T01:29:13.744Z,6.60
2018-09-18T01:31:41.595Z,5.45
2018-09-18T01:34:09.382Z,4.92
2018-09-18T01:36:37.187Z,4.95
2018-09-18T01:39:07.791Z,4.85
2018-09-18T01:41:35.633Z,4.62
2018-09-18T01:44:03.956Z,3.85
2018-09-18T01:46:31.824Z,4.60
2018-09-18T01:48:59.827Z,5.67
2018-09-18T01:51:28.468Z,4.28
2018-09-18T01:53:56.628Z,6.35
2018-09-18T01:56:24.656Z,3.37
2018-09-18T01:58:53.495Z,6.75
2018-09-18T02:01:21.309Z,6.45
2018-09-18T02:03:49.229Z,5.85
2018-09-18T02:06:17.104Z,3.95
2018-09-18T02:08:46.099Z,5.53
2018-09-18T02:11:14.984Z,5.35
2018-09-18T02:13:43.084Z,5.53
2018-09-18T02:16:11.065Z,3.47
2018-09-18T02:18:39.161Z,5.70
2018-09-18T02:21:08.350Z,6.28
2018-09-18T02:23:36.170Z,8.45
2018-09-18T02:26:04.588Z,6.30
2018-09-18T02:28:32.575Z,5.78
2018-09-18T02:31:09.215Z,5.78
2018-09-18T02:33:36.976Z,7.83
2018-09-18T02:36:05.197Z,6.10
2018-09-18T02:38:33.683Z,4.80
2018-09-18T02:41:01.680Z,6.72
2018-09-18T02:43:30.187Z,4.35
2018-09-18T02:45:58.009Z,5.83
2018-09-18T02:48:25.899Z,5.42
2018-09-18T02:50:53.708Z,4.08
2018-09-18T02:53:22.339Z,5.37
2018-09-18T02:55:50.211Z,5.00
2018-09-18T02:58:18.046Z,5.97
2018-09-18T03:00:46.869Z,4.62
2018-09-18T03:03:14.674Z,4.08
2018-09-18T03:05:42.461Z,3.33
2018-09-18T03:08:10.423Z,4.40
2018-09-18T03:10:38.291Z,5.03
2018-09-18T03:13:06.368Z,3.45
2018-09-18T03:15:34.118Z,4.10
2018-09-18T03:18:02.473Z,5.00
2018-09-18T03:20:31.156Z,3.83
2018-09-18T03:22:59.012Z,4.62
2018-09-18T03:25:28.048Z,3.15
2018-09-18T03:27:55.891Z,3.72
2018-09-18T03:30:24.225Z,5.28
2018-09-18T03:32:53.890Z,3.45
2018-09-18T03:35:21.650Z,4.67
2018-09-18T03:37:50.225Z,3.15
2018-09-18T03:40:18.351Z,3.62
2018-09-18T03:42:46.940Z,3.80
2018-09-18T03:45:14.730Z,3.47
2018-09-18T03:47:42.501Z,3.87
2018-09-18T03:50:10.427Z,5.30
2018-09-18T03:52:38.291Z,4.37
2018-09-18T03:55:09.192Z,4.03
2018-09-18T03:57:37.014Z,3.17
2018-09-18T04:00:04.941Z,4.70
2018-09-18T04:02:33.117Z,3.95
2018-09-18T04:05:01.720Z,3.70
2018-09-18T04:07:30.244Z,5.42
2018-09-18T04:09:58.471Z,3.65
2018-09-18T04:12:27.243Z,4.47
2018-09-18T04:14:55.141Z,3.65
2018-09-18T04:17:23.329Z,2.98
2018-09-18T04:19:52.736Z,3.60
2018-09-18T04:22:21.417Z,3.85
2018-09-18T04:24:49.874Z,4.37
2018-09-18T04:27:18.908Z,3.47
2018-09-18T04:29:47.824Z,4.33
2018-09-18T04:32:15.570Z,6.33
2018-09-18T04:34:44.086Z,2.58
2018-09-18T04:37:12.564Z,6.35
2018-09-18T04:39:40.423Z,2.95
2018-09-18T04:42:08.294Z,4.08
2018-09-18T04:44:36.773Z,3.95
2018-09-18T04:47:04.652Z,4.37
2018-09-18T04:49:33.131Z,4.37
2018-09-18T04:52:00.949Z,3.33
2018-09-18T04:54:29.729Z,2.83
2018-09-18T04:56:58.259Z,2.30
2018-09-18T04:59:26.080Z,3.67
2018-09-18T05:01:53.907Z,1.80
2018-09-18T05:04:22.121Z,3.27
2018-09-18T05:06:50.877Z,3.20
2018-09-18T05:09:18.741Z,5.15
2018-09-18T05:11:46.540Z,2.67
2018-09-18T05:14:14.455Z,3.98
2018-09-18T05:16:42.338Z,4.80
2018-09-18T05:19:10.700Z,3.17
2018-09-18T05:21:43.488Z,5.10
2018-09-18T05:24:11.943Z,5.67
2018-09-18T05:26:40.170Z,2.35
2018-09-18T05:29:09.028Z,2.37
2018-09-18T05:31:36.910Z,4.30
2018-09-18T05:34:06.054Z,2.58
2018-09-18T05:36:33.853Z,3.55
2018-09-18T05:39:01.683Z,5.55
2018-09-18T05:41:29.709Z,3.30
2018-09-18T05:43:57.684Z,4.17
2018-09-18T05:46:25.622Z,4.53
2018-09-18T05:48:53.505Z,3.40
2018-09-18T05:51:22.028Z,2.80
2018-09-18T05:53:51.607Z,5.45
2018-09-18T05:56:19.902Z,3.17
2018-09-18T05:58:48.550Z,2.92
2018-09-18T06:01:20.064Z,2.72
2018-09-18T06:03:48.184Z,2.58
2018-09-18T06:06:16.841Z,5.58
2018-09-18T06:08:45.514Z,3.72
2018-09-18T06:11:13.589Z,2.40
2018-09-18T06:13:41.420Z,2.77
2018-09-18T06:16:09.630Z,2.30
2018-09-18T06:18:37.623Z,2.98
2018-09-18T06:21:06.854Z,1.60
2018-09-18T06:23:35.443Z,4.20
2018-09-18T06:26:05.946Z,2.10
2018-09-18T06:28:33.802Z,2.90
2018-09-18T06:31:01.714Z,5.22
2018-09-18T06:33:30.110Z,3.55
2018-09-18T06:35:59.372Z,3.25
2018-09-18T06:38:27.205Z,2.05
2018-09-18T06:40:55.571Z,4.62
2018-09-18T06:43:23.352Z,3.87
2018-09-18T06:45:51.243Z,2.30
2018-09-18T06:48:20.607Z,2.77
2018-09-18T06:50:48.431Z,2.87
2018-09-18T06:53:16.726Z,6.00
2018-09-18T06:55:44.800Z,2.50
2018-09-18T06:58:13.306Z,2.83
2018-09-18T07:00:41.201Z,5.45
2018-09-18T07:03:10.009Z,4.62
2018-09-18T07:05:37.835Z,4.00
2018-09-18T07:08:06.197Z,5.05
2018-09-18T07:10:34.280Z,2.27
2018-09-18T07:13:02.765Z,2.60
2018-09-18T07:15:34.999Z,4.25
2018-09-18T07:18:04.208Z,4.10
2018-09-18T07:20:33.334Z,3.08
2018-09-18T07:23:01.083Z,4.15
2018-09-18T07:25:29.574Z,5.67
2018-09-18T07:27:57.349Z,5.55
2018-09-18T07:30:25.148Z,6.62
2018-09-18T07:32:57.405Z,4.58
2018-09-18T07:35:25.633Z,6.30
2018-09-18T07:40:31.978Z,5.95
2018-09-18T07:42:59.852Z,4.20
2018-09-18T07:45:27.803Z,5.12
2018-09-18T07:47:57.898Z,3.65
2018-09-18T07:50:26.286Z,5.17
2018-09-18T07:52:54.104Z,5.95
2018-09-18T07:55:21.888Z,5.28
2018-09-18T07:57:49.938Z,6.60
2018-09-18T08:00:18.372Z,6.90
2018-09-18T08:02:48.712Z,4.35
2018-09-18T08:05:16.925Z,3.92
2018-09-18T08:07:45.106Z,8.58
2018-09-18T08:10:13.768Z,8.10
2018-09-18T08:12:42.350Z,7.40
2018-09-18T08:15:11.132Z,5.85
2018-09-18T08:17:38.987Z,6.35
2018-09-18T08:20:07.316Z,5.35
2018-09-18T08:22:35.562Z,6.78
2018-09-18T08:25:03.955Z,7.42
2018-09-18T08:27:32.458Z,9.03
2018-09-18T08:30:00.963Z,5.03
2018-09-18T08:32:28.807Z,4.28
2018-09-18T08:34:56.595Z,2.83
2018-09-18T08:37:25.730Z,5.85
2018-09-18T08:39:53.489Z,7.72
2018-09-18T08:42:23.827Z,5.80
2018-09-18T08:44:53.057Z,4.40
2018-09-18T08:47:21.525Z,7.25
2018-09-18T08:49:49.440Z,4.20
2018-09-18T08:52:17.302Z,4.12
2018-09-18T08:54:45.969Z,3.47
2018-09-18T08:57:14.091Z,3.65
2018-09-18T08:59:42.332Z,4.35
2018-09-18T09:02:10.564Z,4.80
2018-09-18T09:04:39.845Z,3.45
2018-09-18T09:07:07.529Z,9.05
2018-09-18T09:09:35.425Z,5.20
2018-09-18T09:12:05.675Z,5.37
2018-09-18T09:14:33.488Z,6.08
2018-09-18T09:17:01.523Z,5.28
2018-09-18T09:19:30.375Z,3.70
2018-09-18T09:21:58.814Z,7.10
2018-09-18T09:24:27.415Z,6.92
2018-09-18T09:26:55.269Z,5.53
2018-09-18T09:29:23.060Z,8.40
2018-09-18T09:31:51.275Z,9.23
2018-09-18T09:34:19.004Z,6.60
2018-09-18T09:36:47.788Z,7.62
2018-09-18T09:39:16.323Z,3.75
2018-09-18T09:41:44.338Z,6.87
2018-09-18T09:44:13.003Z,5.50
2018-09-18T09:46:40.857Z,6.47
2018-09-18T09:49:08.636Z,4.30
2018-09-18T09:51:36.410Z,3.25
2018-09-18T09:54:04.670Z,9.60
2018-09-18T09:56:32.487Z,6.58
2018-09-18T09:59:00.774Z,5.62
2018-09-18T10:01:34.659Z,4.12
2018-09-18T10:04:03.490Z,3.67
2018-09-18T10:06:31.769Z,6.03
2018-09-18T10:08:59.552Z,4.80
2018-09-18T10:11:27.382Z,4.80
2018-09-18T10:13:56.143Z,7.45
2018-09-18T10:16:24.158Z,4.05
2018-09-18T10:18:56.452Z,3.72
2018-09-18T10:21:24.268Z,5.87
2018-09-18T10:23:52.865Z,7.60
2018-09-18T10:26:21.657Z,5.10
2018-09-18T10:28:49.874Z,6.47
2018-09-18T10:31:21.163Z,6.30
2018-09-18T10:33:48.900Z,7.55
2018-09-18T10:36:16.749Z,6.35
2018-09-18T10:38:45.258Z,6.40
2018-09-18T10:41:13.340Z,6.42
2018-09-18T10:43:41.033Z,4.97
2018-09-18T10:46:08.761Z,6.12
2018-09-18T10:48:42.297Z,5.92
2018-09-18T10:51:10.099Z,5.08
2018-09-18T10:53:38.165Z,4.17
2018-09-18T10:56:06.035Z,2.12
2018-09-18T10:58:33.810Z,4.72
2018-09-18T11:01:03.752Z,3.52
2018-09-18T11:03:31.503Z,4.65
2018-09-18T11:05:59.328Z,5.17
2018-09-18T11:08:27.187Z,4.90
2018-09-18T11:10:55.483Z,4.33
2018-09-18T11:13:23.331Z,6.03
2018-09-18T11:15:52.913Z,2.55
2018-09-18T11:18:21.287Z,3.17
2018-09-18T11:20:49.105Z,3.85
2018-09-18T11:23:17.892Z,4.22
2018-09-18T11:25:46.381Z,3.77
2018-09-18T11:28:15.953Z,3.95
2018-09-18T11:30:47.025Z,3.17
2018-09-18T11:33:15.900Z,3.65
2018-09-18T11:35:46.999Z,3.45
2018-09-18T11:38:15.725Z,3.80
2018-09-18T11:40:44.355Z,4.72
2018-09-18T11:43:12.724Z,5.90
2018-09-18T11:45:42.000Z,4.03
2018-09-18T11:48:09.845Z,2.08
2018-09-18T11:50:37.628Z,2.80
2018-09-18T11:53:06.021Z,3.85
2018-09-18T11:55:34.373Z,7.20
2018-09-18T11:58:02.570Z,4.75
2018-09-18T12:00:30.963Z,3.25
2018-09-18T12:02:59.603Z,3.20
2018-09-18T12:05:28.741Z,3.90
2018-09-18T12:07:57.333Z,4.53
2018-09-18T12:10:25.193Z,3.72
2018-09-18T12:12:54.072Z,5.28
2018-09-18T12:15:24.498Z,3.95
2018-09-18T12:17:54.173Z,4.33
2018-09-18T12:20:22.373Z,4.62
2018-09-18T12:22:54.235Z,4.62
2018-09-18T12:25:22.237Z,5.00
2018-09-18T12:27:50.442Z,3.67
2018-09-18T12:30:18.606Z,7.10
2018-09-18T12:32:48.662Z,3.58
2018-09-18T12:35:17.373Z,3.22
2018-09-18T12:37:45.992Z,4.90
2018-09-18T12:40:13.861Z,3.60
2018-09-18T12:42:44.005Z,5.37
2018-09-18T12:45:11.779Z,6.90
2018-09-18T12:47:46.864Z,7.65
2018-09-18T12:50:14.963Z,6.25
2018-09-18T12:52:42.731Z,6.42
2018-09-18T12:55:10.536Z,6.70
2018-09-18T12:57:38.480Z,5.17
2018-09-18T13:00:07.458Z,7.53
2018-09-18T13:02:36.422Z,3.35
2018-09-18T13:05:08.267Z,6.95
2018-09-18T13:07:36.958Z,9.35
2018-09-18T13:12:37.819Z,3.77
2018-09-18T13:15:07.190Z,6.15
2018-09-18T13:17:36.262Z,5.78
2018-09-18T13:20:04.580Z,3.98
2018-09-18T13:22:34.048Z,5.20
2018-09-18T13:25:02.934Z,6.72
2018-09-18T13:27:31.528Z,5.92
2018-09-18T13:30:01.089Z,4.72
2018-09-18T13:32:29.623Z,4.80
2018-09-18T13:34:57.474Z,6.78
2018-09-18T13:37:25.236Z,5.35
2018-09-18T13:39:53.615Z,6.35
2018-09-18T13:42:21.457Z,5.83
2018-09-18T13:44:49.881Z,4.70
2018-09-18T13:47:17.716Z,3.95
2018-09-18T13:49:46.042Z,8.85
2018-09-18T13:52:13.885Z,4.92
2018-09-18T13:54:41.796Z,4.70
2018-09-18T13:57:09.682Z,3.30
2018-09-18T13:59:37.672Z,5.47
2018-09-18T14:02:06.295Z,7.05
2018-09-18T14:04:34.469Z,5.85
2018-09-18T14:07:04.758Z,6.20
2018-09-18T14:09:34.954Z,4.17
2018-09-18T14:12:03.513Z,4.12
2018-09-18T14:14:31.469Z,5.12
2018-09-18T14:16:59.353Z,6.28
2018-09-18T14:19:31.411Z,5.72
2018-09-18T14:21:59.145Z,9.20
2018-09-18T14:24:27.866Z,8.10
2018-09-18T14:26:55.782Z,3.95
2018-09-18T14:29:23.641Z,5.05
2018-09-18T14:31:51.629Z,5.87
2018-09-18T14:34:20.707Z,4.55
2018-09-18T14:36:48.916Z,4.55
2018-09-18T14:39:17.401Z,7.05
2018-09-18T14:41:45.345Z,6.25
2018-09-18T14:44:14.113Z,3.90
2018-09-18T14:46:42.869Z,5.33
2018-09-18T14:49:13.536Z,6.25
2018-09-18T14:51:42.226Z,1.85
2018-09-18T14:54:12.281Z,4.87
2018-09-18T14:56:41.228Z,5.92
2018-09-18T14:59:13.519Z,7.60
2018-09-18T15:01:42.454Z,7.37
2018-09-18T15:04:11.983Z,9.58
2018-09-18T15:06:39.757Z,9.75
2018-09-18T15:09:09.490Z,6.80
2018-09-18T15:11:38.052Z,5.17
2018-09-18T15:14:07.973Z,5.55
2018-09-18T15:16:36.057Z,5.60
2018-09-18T15:19:11.870Z,5.60
2018-09-18T15:21:39.922Z,8.08
2018-09-18T15:24:08.915Z,7.70
2018-09-18T15:26:37.802Z,6.33
2018-09-18T15:29:06.614Z,6.95
2018-09-18T15:31:36.014Z,8.98
2018-09-18T15:34:04.188Z,3.27
2018-09-18T15:36:33.145Z,6.37
2018-09-18T15:39:02.023Z,8.55
2018-09-18T15:41:34.553Z,8.18
2018-09-18T15:44:03.164Z,8.70
2018-09-18T15:46:32.618Z,7.12
2018-09-18T15:49:01.196Z,7.17
2018-09-18T15:51:29.742Z,8.60
2018-09-18T15:53:58.222Z,4.50
2018-09-18T15:56:27.129Z,6.85
2018-09-18T15:58:55.044Z,9.43
2018-09-18T16:01:24.138Z,7.17
2018-09-18T16:03:52.148Z,9.38
2018-09-18T16:06:20.602Z,7.12
2018-09-18T16:08:48.480Z,7.00
2018-09-18T16:11:18.570Z,5.95
2018-09-18T16:13:47.214Z,7.85
2018-09-18T16:16:15.048Z,8.15
2018-09-18T16:18:43.472Z,7.53
2018-09-18T16:21:11.723Z,7.03
2018-09-18T16:23:39.512Z,7.08
2018-09-18T16:26:07.349Z,7.08
2018-09-18T16:28:35.144Z,6.60
2018-09-18T16:31:03.002Z,6.05
2018-09-18T16:33:30.768Z,8.93
2018-09-18T16:35:58.529Z,10.18
2018-09-18T16:38:26.524Z,11.83
2018-09-18T16:40:54.343Z,8.93
2018-09-18T16:43:22.198Z,7.10
2018-09-18T16:45:49.940Z,5.70
2018-09-18T16:48:17.724Z,6.67
2018-09-18T16:50:45.491Z,5.35
2018-09-18T16:53:13.666Z,5.47
2018-09-18T16:55:42.716Z,5.92
2018-09-18T16:58:11.324Z,8.33
2018-09-18T17:00:40.176Z,9.53
2018-09-18T17:03:09.330Z,5.85
2018-09-18T17:05:37.252Z,7.80
2018-09-18T17:08:07.109Z,8.73
2018-09-18T17:10:35.014Z,4.28
2018-09-18T17:13:03.621Z,10.72
2018-09-18T17:15:32.252Z,6.67
2018-09-18T17:18:01.738Z,7.60
2018-09-18T17:20:31.618Z,6.83
2018-09-18T17:23:00.625Z,6.87
2018-09-18T17:25:29.361Z,10.13
2018-09-18T17:27:57.466Z,5.80
2018-09-18T17:30:25.814Z,8.23
2018-09-18T17:32:53.624Z,10.23
2018-09-18T17:35:23.225Z,8.88
2018-09-18T17:37:54.561Z,5.40
2018-09-18T17:40:24.072Z,9.23
2018-09-18T17:42:53.095Z,11.05
2018-09-18T17:45:22.026Z,10.58
2018-09-18T17:47:51.379Z,7.35
2018-09-18T17:50:20.252Z,8.65
2018-09-18T17:52:48.672Z,11.00
2018-09-18T17:55:17.301Z,10.23
2018-09-18T17:57:46.819Z,7.65
2018-09-18T18:00:15.410Z,13.80
2018-09-18T18:02:44.275Z,11.85
2018-09-18T18:05:14.942Z,9.78
2018-09-18T18:07:50.936Z,5.70
2018-09-18T18:10:19.870Z,11.68
2018-09-18T18:12:48.871Z,12.65
2018-09-18T18:15:16.991Z,6.55
2018-09-18T18:17:45.861Z,14.73
2018-09-18T18:20:17.795Z,10.18
2018-09-18T18:22:46.327Z,13.72
2018-09-18T18:25:14.212Z,9.55
2018-09-18T18:27:46.169Z,11.33
2018-09-18T18:30:14.980Z,11.03
2018-09-18T18:32:44.317Z,11.22
2018-09-18T18:35:12.716Z,10.65
2018-09-18T18:37:41.617Z,10.23
2018-09-18T18:40:10.223Z,12.82
2018-09-18T18:42:38.266Z,6.40
2018-09-18T18:45:07.845Z,9.10
2018-09-18T18:47:36.776Z,7.28
2018-09-18T18:50:04.622Z,9.40
2018-09-18T18:52:35.798Z,10.03
2018-09-18T18:55:04.880Z,12.88
2018-09-18T18:57:33.693Z,10.85
2018-09-18T19:00:02.091Z,10.70
2018-09-18T19:02:30.424Z,10.25
2018-09-18T19:04:59.590Z,9.60
2018-09-18T19:07:27.399Z,10.50
2018-09-18T19:09:55.683Z,11.03
2018-09-18T19:12:24.482Z,11.22
2018-09-18T19:14:52.336Z,9.80
2018-09-18T19:17:20.833Z,9.50
2018-09-18T19:20:03.146Z,9.20
2018-09-18T19:22:31.003Z,8.13
2018-09-18T19:25:02.002Z,12.95
2018-09-18T19:27:32.249Z,10.13
2018-09-18T19:30:06.336Z,10.93
2018-09-18T19:32:38.489Z,10.88
2018-09-18T19:35:07.771Z,7.95
2018-09-18T19:37:37.149Z,7.72
2018-09-18T19:40:06.557Z,12.55
2018-09-18T19:42:35.038Z,7.47
2018-09-18T19:45:03.425Z,8.35
2018-09-18T19:47:32.210Z,8.08
2018-09-18T19:50:02.816Z,8.18
2018-09-18T19:52:32.481Z,11.95
2018-09-18T19:55:00.774Z,9.78
2018-09-18T19:57:29.421Z,8.10
2018-09-18T19:59:58.083Z,6.87
2018-09-18T20:02:26.631Z,8.10
2018-09-18T20:04:54.888Z,9.83
2018-09-18T20:07:23.138Z,12.20
2018-09-18T20:09:53.088Z,8.38
2018-09-18T20:12:22.407Z,8.00
2018-09-18T20:14:50.994Z,8.85
2018-09-18T20:17:20.810Z,9.63
2018-09-18T20:19:48.707Z,9.90
2018-09-18T20:22:18.612Z,11.55
2018-09-18T20:24:49.355Z,7.30
2018-09-18T20:27:18.165Z,12.05
2018-09-18T20:29:46.286Z,8.70
2018-09-18T20:32:14.690Z,9.55
2018-09-18T20:34:42.745Z,9.93
2018-09-18T20:37:11.350Z,9.58
2018-09-18T20:39:39.258Z,8.88
2018-09-18T20:42:09.636Z,6.17
2018-09-18T20:44:39.033Z,11.88
2018-09-18T20:47:07.370Z,6.58
2018-09-18T20:49:36.180Z,6.70
2018-09-18T20:52:04.669Z,11.70
2018-09-18T20:54:32.500Z,11.68
2018-09-18T20:57:00.543Z,8.75
2018-09-18T20:59:28.345Z,9.88
2018-09-18T21:01:56.175Z,9.43
2018-09-18T21:04:23.998Z,9.30
2018-09-18T21:06:51.826Z,10.48
2018-09-18T21:09:30.136Z,8.50
2018-09-18T21:12:01.599Z,10.03
2018-09-18T21:14:30.821Z,10.58
2018-09-18T21:16:58.984Z,10.68
2018-09-18T21:19:28.006Z,9.48
2018-09-18T21:21:55.941Z,12.00
2018-09-18T21:24:24.154Z,6.75
2018-09-18T21:26:52.078Z,12.13
2018-09-18T21:29:20.315Z,11.10
2018-09-18T21:31:48.124Z,11.03
2018-09-18T21:34:15.942Z,9.68
2018-09-18T21:36:43.850Z,11.65
2018-09-18T21:39:12.825Z,9.80
2018-09-18T21:41:41.190Z,12.00
2018-09-18T21:44:08.954Z,11.55
2018-09-18T21:46:36.717Z,9.40
2018-09-18T21:49:06.738Z,11.68
2018-09-18T21:51:34.467Z,10.28
2018-09-18T21:54:03.519Z,9.45
2018-09-18T21:56:31.362Z,6.40
2018-09-18T21:58:59.291Z,7.17
2018-09-18T22:01:27.808Z,8.08
2018-09-18T22:03:55.588Z,8.60
2018-09-18T22:06:23.404Z,8.58
2018-09-18T22:08:51.681Z,7.22
2018-09-18T22:11:20.022Z,8.50
2018-09-18T22:13:47.770Z,7.78
2018-09-18T22:16:15.601Z,6.35
2018-09-18T22:18:43.497Z,5.75
2018-09-18T22:21:11.309Z,6.85
2018-09-18T22:23:39.312Z,6.50
2018-09-18T22:26:07.312Z,8.23
2018-09-18T22:28:35.151Z,5.28
2018-09-18T22:31:03.583Z,7.97
2018-09-18T22:33:31.302Z,5.87
2018-09-18T22:35:59.662Z,6.17
2018-09-18T22:38:28.374Z,5.58
2018-09-18T22:40:56.688Z,7.80
2018-09-18T22:43:24.466Z,6.37
2018-09-18T22:45:52.504Z,5.22
2018-09-18T22:48:21.119Z,6.45
2018-09-18T22:50:49.999Z,9.20
2018-09-18T22:53:17.766Z,7.58
2018-09-18T22:55:45.553Z,8.35
2018-09-18T22:58:13.269Z,6.30
2018-09-18T23:00:41.005Z,6.90
2018-09-18T23:03:08.793Z,7.62
2018-09-18T23:05:37.035Z,5.37
2018-09-18T23:08:05.789Z,7.30
2018-09-18T23:10:34.416Z,5.78
2018-09-18T23:13:03.584Z,6.33
2018-09-18T23:15:31.366Z,6.15
2018-09-18T23:18:00.342Z,4.67
2018-09-18T23:20:28.088Z,5.60
2018-09-18T23:22:55.837Z,5.67
2018-09-18T23:25:23.583Z,8.03
2018-09-18T23:27:52.288Z,4.95
2018-09-18T23:30:20.928Z,2.27
2018-09-18T23:32:48.704Z,7.75
2018-09-18T23:35:17.876Z,6.60
2018-09-18T23:37:45.614Z,6.72
2018-09-18T23:40:13.451Z,8.10
2018-09-18T23:42:41.264Z,4.08
2018-09-18T23:45:09.013Z,7.20
2018-09-18T23:47:36.776Z,6.60
2018-09-18T23:50:04.598Z,6.60
2018-09-18T23:52:32.364Z,7.80
2018-09-18T23:55:00.420Z,4.75
2018-09-18T23:57:28.223Z,8.48
2018-09-18T23:59:56.064Z,7.67
